Time;durP1;ratioP1;P1;durP2;ratioP2;P2;SDS_P1;SDS_P2;PMS_P1;PMS_P2;Temp;Humidity;BMP_temperature;BMP_pressure;BME280_temperature;BME280_humidity;BME280_pressure;Samples;Min_cycle;Max_cycle;Signal;HPM_P1;HPM_P2
2023/12/23 00:01:58;;;;;;;12.82;3.15;;;5.70;99.90;;;;;;4995787;28;20046;-64
2023/12/23 00:04:24;;;;;;;13.70;2.33;;;5.70;99.90;;;;;;5000139;28;20046;-63
2023/12/23 00:06:49;;;;;;;11.07;2.00;;;5.70;99.90;;;;;;5001946;28;20046;-64
2023/12/23 00:09:16;;;;;;;14.38;2.40;;;5.70;99.90;;;;;;5003918;28;20037;-64
2023/12/23 00:11:42;;;;;;;13.25;1.80;;;5.60;99.90;;;;;;4999653;28;20029;-64
2023/12/23 00:14:08;;;;;;;8.25;2.00;;;5.70;99.90;;;;;;5001450;28;20085;-64
2023/12/23 00:16:33;;;;;;;7.97;1.98;;;5.70;99.90;;;;;;5002553;28;20074;-64
2023/12/23 00:18:59;;;;;;;11.95;2.10;;;5.60;99.90;;;;;;5000461;28;20058;-64
2023/12/23 00:21:25;;;;;;;14.63;2.78;;;5.60;99.90;;;;;;4997575;28;20182;-64
2023/12/23 00:23:50;;;;;;;16.75;3.70;;;5.60;99.90;;;;;;4998677;28;20033;-64
2023/12/23 00:26:16;;;;;;;19.88;2.80;;;5.50;99.90;;;;;;5003956;28;20535;-64
2023/12/23 00:28:42;;;;;;;23.45;3.22;;;5.50;99.90;;;;;;5002878;28;20050;-64
2023/12/23 00:31:08;;;;;;;18.40;3.45;;;5.50;99.90;;;;;;5001977;28;20512;-64
2023/12/23 00:33:33;;;;;;;19.02;2.65;;;5.50;99.90;;;;;;4988875;28;20089;-63
2023/12/23 00:35:59;;;;;;;25.13;3.03;;;5.50;99.90;;;;;;5000489;28;20113;-64
2023/12/23 00:38:25;;;;;;;28.65;3.75;;;5.60;99.90;;;;;;4999391;28;20077;-64
2023/12/23 00:40:51;;;;;;;15.20;2.35;;;5.60;99.90;;;;;;5002577;28;20137;-64
2023/12/23 00:43:16;;;;;;;29.35;4.18;;;5.60;99.90;;;;;;4999066;28;20065;-64
2023/12/23 00:45:42;;;;;;;22.48;4.47;;;5.70;99.90;;;;;;4995874;28;20497;-64
2023/12/23 00:48:08;;;;;;;24.95;3.70;;;5.70;99.90;;;;;;4998408;28;20060;-64
2023/12/23 00:50:34;;;;;;;23.45;3.70;;;5.80;99.90;;;;;;4998685;28;20034;-64
2023/12/23 00:53:02;;;;;;;28.40;4.93;;;5.80;99.90;;;;;;5000456;28;20452;-64
2023/12/23 00:55:28;;;;;;;23.43;3.73;;;5.80;99.90;;;;;;5000695;28;20074;-65
2023/12/23 00:57:54;;;;;;;21.60;3.33;;;5.80;99.90;;;;;;4997738;28;20030;-65
2023/12/23 01:00:19;;;;;;;12.95;3.10;;;5.90;99.90;;;;;;4991533;28;20067;-65
2023/12/23 01:02:45;;;;;;;20.85;3.67;;;5.80;99.90;;;;;;5000454;28;20069;-65
2023/12/23 01:05:11;;;;;;;25.63;3.63;;;5.80;99.90;;;;;;4993723;28;20046;-65
2023/12/23 01:07:37;;;;;;;18.13;3.47;;;5.80;99.90;;;;;;4999818;28;20080;-64
2023/12/23 01:10:03;;;;;;;25.55;4.15;;;5.80;99.90;;;;;;4999184;28;20531;-64
2023/12/23 01:12:28;;;;;;;25.98;4.70;;;5.90;99.90;;;;;;5000404;28;20041;-64
2023/12/23 01:14:54;;;;;;;22.02;4.47;;;5.90;99.90;;;;;;5002108;28;20431;-65
2023/12/23 01:17:20;;;;;;;21.42;3.10;;;5.90;99.90;;;;;;5001786;28;20052;-64
2023/12/23 01:19:45;;;;;;;20.60;3.97;;;5.90;99.90;;;;;;4990983;28;20034;-64
2023/12/23 01:22:11;;;;;;;20.65;3.03;;;6.00;99.90;;;;;;4995246;28;20149;-64
2023/12/23 01:24:37;;;;;;;18.42;3.65;;;6.00;99.90;;;;;;4999130;28;20041;-65
2023/12/23 01:27:03;;;;;;;20.38;3.17;;;6.00;99.90;;;;;;5002234;28;20042;-64
2023/12/23 01:29:28;;;;;;;20.17;3.00;;;6.10;99.90;;;;;;4994625;28;20073;-64
2023/12/23 01:31:54;;;;;;;20.10;3.83;;;6.10;99.90;;;;;;4989508;28;20548;-65
2023/12/23 01:34:20;;;;;;;18.70;2.85;;;6.10;99.90;;;;;;4998062;28;20042;-64
2023/12/23 01:36:45;;;;;;;13.38;2.45;;;6.20;99.90;;;;;;4994383;28;20037;-65
2023/12/23 01:39:11;;;;;;;18.50;2.85;;;6.20;99.90;;;;;;5000941;28;20199;-64
2023/12/23 01:41:37;;;;;;;20.38;2.95;;;6.20;99.90;;;;;;5002782;28;20124;-65
2023/12/23 01:44:03;;;;;;;20.35;2.92;;;6.20;99.90;;;;;;4994198;28;20129;-65
2023/12/23 01:46:28;;;;;;;16.15;2.63;;;6.20;99.90;;;;;;4999231;28;20624;-65
2023/12/23 01:48:55;;;;;;;18.48;2.55;;;6.30;99.90;;;;;;4994263;28;20041;-65
2023/12/23 01:51:22;;;;;;;12.05;2.35;;;6.30;99.90;;;;;;4995512;28;20053;-65
2023/12/23 01:53:48;;;;;;;24.73;3.05;;;6.40;99.90;;;;;;4999990;28;20120;-65
2023/12/23 01:56:15;;;;;;;14.90;2.30;;;6.40;99.90;;;;;;4998422;28;20119;-65
2023/12/23 01:58:41;;;;;;;11.10;1.90;;;6.50;99.90;;;;;;4989000;28;20038;-65
2023/12/23 02:01:07;;;;;;;12.88;1.92;;;6.50;99.90;;;;;;5000408;28;20053;-65
2023/12/23 02:03:32;;;;;;;22.15;3.05;;;6.60;99.90;;;;;;4993009;28;20224;-65
2023/12/23 02:05:59;;;;;;;18.45;2.67;;;6.50;99.90;;;;;;4991011;28;20170;-64
2023/12/23 02:08:25;;;;;;;15.00;2.38;;;6.60;99.90;;;;;;4999898;28;20045;-65
2023/12/23 02:11:04;;;;;;;14.45;2.45;;;6.60;99.90;;;;;;4992381;28;20468;-65
2023/12/23 02:13:55;;;;;;;12.55;2.00;;;6.40;99.90;;;;;;4977216;28;20058;-65
2023/12/23 02:16:21;;;;;;;12.65;2.53;;;6.50;99.90;;;;;;4982821;28;20529;-64
2023/12/23 02:18:47;;;;;;;14.45;3.38;;;6.50;99.90;;;;;;4999427;28;20081;-65
2023/12/23 02:21:13;;;;;;;16.45;2.95;;;6.50;99.90;;;;;;4996527;28;20192;-65
2023/12/23 02:23:39;;;;;;;14.63;2.28;;;6.60;99.90;;;;;;5002480;28;20042;-65
2023/12/23 02:26:08;;;;;;;16.02;3.20;;;6.60;99.90;;;;;;4998701;28;20045;-64
2023/12/23 02:28:34;;;;;;;11.50;2.28;;;6.60;99.90;;;;;;4994036;28;20125;-64
2023/12/23 02:31:01;;;;;;;17.13;3.25;;;6.60;99.90;;;;;;4997809;28;20104;-64
2023/12/23 02:33:27;;;;;;;17.55;2.97;;;6.50;99.90;;;;;;4998159;28;20077;-64
2023/12/23 02:35:53;;;;;;;13.32;3.38;;;6.50;99.90;;;;;;4998006;28;20053;-64
2023/12/23 02:38:22;;;;;;;12.18;2.58;;;6.50;99.90;;;;;;4991668;28;20046;-65
2023/12/23 02:40:49;;;;;;;17.20;2.80;;;6.50;99.90;;;;;;4995067;28;20523;-65
2023/12/23 02:43:14;;;;;;;20.60;2.75;;;6.40;99.90;;;;;;4996505;28;20441;-63
2023/12/23 02:45:40;;;;;;;12.82;1.73;;;6.40;99.90;;;;;;4992846;28;20033;-65
2023/12/23 02:48:06;;;;;;;17.30;2.35;;;6.40;99.90;;;;;;4997742;28;20413;-64
2023/12/23 02:50:32;;;;;;;14.07;2.28;;;6.40;99.90;;;;;;4996736;28;20509;-65
2023/12/23 02:53:00;;;;;;;13.40;2.92;;;6.40;99.90;;;;;;4999153;28;20038;-65
2023/12/23 02:55:25;;;;;;;12.43;2.10;;;6.40;99.90;;;;;;4999335;28;20048;-65
2023/12/23 02:57:51;;;;;;;13.88;2.25;;;6.30;99.90;;;;;;4992319;28;20485;-65
2023/12/23 03:00:17;;;;;;;14.35;1.80;;;6.30;99.90;;;;;;4987553;28;20046;-65
2023/12/23 03:02:43;;;;;;;13.15;1.98;;;6.30;99.90;;;;;;4989026;28;20038;-64
2023/12/23 03:05:08;;;;;;;10.98;1.83;;;6.30;99.90;;;;;;4993710;28;20046;-65
2023/12/23 03:07:34;;;;;;;14.73;2.13;;;6.20;99.90;;;;;;4990937;28;20046;-64
2023/12/23 03:10:00;;;;;;;7.28;1.95;;;6.20;99.90;;;;;;5000807;28;20049;-65
2023/12/23 03:12:25;;;;;;;17.15;2.80;;;6.10;99.90;;;;;;4992201;28;20045;-64
2023/12/23 03:14:51;;;;;;;12.23;2.25;;;6.20;99.90;;;;;;4995939;28;20061;-65
2023/12/23 03:17:17;;;;;;;11.00;1.98;;;6.10;99.90;;;;;;4996138;28;20425;-64
2023/12/23 03:19:43;;;;;;;16.92;2.05;;;6.20;99.90;;;;;;4999195;28;20132;-65
2023/12/23 03:22:08;;;;;;;9.43;1.70;;;6.10;99.90;;;;;;4998399;28;20132;-64
2023/12/23 03:24:34;;;;;;;10.35;1.90;;;6.10;99.90;;;;;;4994868;28;20077;-64
2023/12/23 03:27:00;;;;;;;14.18;2.55;;;6.20;99.90;;;;;;4997525;28;20072;-65
2023/12/23 03:29:26;;;;;;;16.95;2.67;;;6.20;99.90;;;;;;4990902;28;20201;-65
2023/12/23 03:31:52;;;;;;;18.05;2.42;;;6.10;99.90;;;;;;4994312;28;20048;-64
2023/12/23 03:34:18;;;;;;;8.45;1.33;;;6.10;99.90;;;;;;4994665;28;20109;-64
2023/12/23 03:36:43;;;;;;;11.20;2.13;;;6.20;99.90;;;;;;4997954;28;20030;-65
2023/12/23 03:39:09;;;;;;;9.77;1.40;;;6.20;99.90;;;;;;4992167;28;20043;-64
2023/12/23 03:41:35;;;;;;;10.15;1.23;;;6.10;99.90;;;;;;4998066;28;20034;-64
2023/12/23 03:44:01;;;;;;;12.40;1.80;;;6.20;99.90;;;;;;4990675;28;20073;-64
2023/12/23 03:46:27;;;;;;;11.30;2.35;;;6.00;99.90;;;;;;4994500;28;20495;-64
2023/12/23 03:48:53;;;;;;;9.27;1.63;;;6.00;99.90;;;;;;4988580;28;20327;-64
2023/12/23 03:51:21;;;;;;;14.23;2.33;;;6.00;99.90;;;;;;4994481;28;20061;-64
2023/12/23 03:53:46;;;;;;;6.88;1.60;;;6.10;99.90;;;;;;4999534;28;20045;-63
2023/12/23 03:56:12;;;;;;;8.30;1.65;;;6.10;99.90;;;;;;4996264;28;20109;-64
2023/12/23 03:58:39;;;;;;;7.97;1.95;;;6.00;99.90;;;;;;4997489;28;20125;-64
2023/12/23 04:01:04;;;;;;;13.98;2.00;;;6.00;99.90;;;;;;4997763;28;20745;-64
2023/12/23 04:03:30;;;;;;;10.20;1.45;;;6.10;99.90;;;;;;4997220;28;20401;-64
2023/12/23 04:05:56;;;;;;;11.27;1.80;;;6.10;99.90;;;;;;4990961;28;20038;-64
2023/12/23 04:08:22;;;;;;;10.70;2.30;;;6.10;99.90;;;;;;4995671;28;20045;-64
2023/12/23 04:10:48;;;;;;;13.13;1.52;;;6.00;99.90;;;;;;4990191;28;20696;-64
2023/12/23 04:13:16;;;;;;;12.95;1.55;;;6.10;99.90;;;;;;4986740;28;20034;-64
2023/12/23 04:15:41;;;;;;;12.40;1.80;;;6.10;99.90;;;;;;4995679;28;20045;-64
2023/12/23 04:18:07;;;;;;;11.15;1.70;;;6.10;99.90;;;;;;4981661;28;20038;-64
2023/12/23 04:20:33;;;;;;;11.77;1.25;;;6.00;99.90;;;;;;4995402;28;20042;-64
2023/12/23 04:22:59;;;;;;;12.70;2.22;;;6.00;99.90;;;;;;4993344;28;20117;-64
2023/12/23 04:25:24;;;;;;;13.02;1.55;;;6.00;99.90;;;;;;4996553;28;20081;-63
2023/12/23 04:27:51;;;;;;;11.38;1.92;;;6.00;99.90;;;;;;4998059;28;20416;-64
2023/12/23 04:30:17;;;;;;;11.55;2.30;;;6.00;99.90;;;;;;4993497;28;20052;-64
2023/12/23 04:32:43;;;;;;;7.50;1.10;;;6.10;99.90;;;;;;4991178;28;20567;-64
2023/12/23 04:35:09;;;;;;;14.43;2.28;;;6.00;99.90;;;;;;4992785;28;20132;-64
2023/12/23 04:37:40;;;;;;;9.15;1.88;;;6.00;99.90;;;;;;4990996;28;20070;-64
2023/12/23 04:40:07;;;;;;;11.05;1.60;;;6.10;99.90;;;;;;5000855;28;20042;-65
2023/12/23 04:42:33;;;;;;;10.57;1.90;;;6.10;99.90;;;;;;4995527;28;20116;-64
2023/12/23 04:44:58;;;;;;;10.35;1.88;;;6.20;99.90;;;;;;5001239;28;20046;-65
2023/12/23 04:47:24;;;;;;;8.93;1.50;;;6.10;99.90;;;;;;5000346;28;20093;-64
2023/12/23 04:49:50;;;;;;;7.45;1.35;;;6.20;99.90;;;;;;4985246;28;20429;-65
2023/12/23 04:52:16;;;;;;;10.98;1.65;;;6.30;99.90;;;;;;4999338;28;20042;-64
2023/12/23 04:54:42;;;;;;;8.20;1.48;;;6.10;99.90;;;;;;4998580;28;20106;-64
2023/12/23 04:57:07;;;;;;;9.70;1.45;;;6.20;99.90;;;;;;4995944;28;20042;-64
2023/12/23 04:59:33;;;;;;;7.47;1.42;;;6.00;99.90;;;;;;4997617;28;20141;-64
2023/12/23 05:01:59;;;;;;;6.32;1.30;;;6.10;99.90;;;;;;4997512;28;20104;-64
2023/12/23 05:04:25;;;;;;;5.68;1.30;;;6.20;99.90;;;;;;4997639;28;20136;-65
2023/12/23 05:06:51;;;;;;;7.47;1.33;;;6.10;99.90;;;;;;4994067;28;20041;-63
2023/12/23 05:09:16;;;;;;;6.60;1.40;;;6.20;99.90;;;;;;4995716;28;20799;-63
2023/12/23 05:11:42;;;;;;;4.78;1.17;;;6.20;99.90;;;;;;4993980;28;20082;-63
2023/12/23 05:14:08;;;;;;;8.60;1.15;;;6.30;99.90;;;;;;4998389;28;20042;-63
2023/12/23 05:16:33;;;;;;;9.55;1.65;;;6.20;99.90;;;;;;4999293;28;20147;-63
2023/12/23 05:18:59;;;;;;;9.38;1.15;;;6.10;99.90;;;;;;4999433;28;20052;-65
2023/12/23 05:21:25;;;;;;;6.70;1.80;;;6.30;99.90;;;;;;4998867;28;20046;-62
2023/12/23 05:23:51;;;;;;;7.38;1.58;;;6.20;99.90;;;;;;5000568;28;21081;-62
2023/12/23 05:26:19;;;;;;;9.50;1.85;;;6.20;99.90;;;;;;4997818;28;20033;-63
2023/12/23 05:28:44;;;;;;;7.18;1.30;;;6.20;99.90;;;;;;4995601;28;20038;-63
2023/12/23 05:31:10;;;;;;;9.70;1.60;;;6.20;99.90;;;;;;4992668;28;20052;-63
2023/12/23 05:33:36;;;;;;;7.88;2.05;;;6.20;99.90;;;;;;5002732;28;20497;-63
2023/12/23 05:36:02;;;;;;;7.28;1.85;;;6.20;99.90;;;;;;4991850;28;20414;-62
2023/12/23 05:38:27;;;;;;;7.13;1.27;;;6.20;99.90;;;;;;4983772;28;20393;-63
2023/12/23 05:40:54;;;;;;;13.60;3.28;;;6.30;99.90;;;;;;4998111;28;20073;-63
2023/12/23 05:43:19;;;;;;;5.30;1.60;;;6.20;99.90;;;;;;4986888;28;20181;-63
2023/12/23 05:45:45;;;;;;;6.13;1.17;;;6.10;99.90;;;;;;5000563;28;20069;-63
2023/12/23 05:48:11;;;;;;;6.63;1.75;;;6.10;99.90;;;;;;4999514;28;20046;-63
2023/12/23 05:50:36;;;;;;;6.68;1.83;;;6.10;99.90;;;;;;4999200;28;20046;-63
2023/12/23 05:53:02;;;;;;;4.90;1.52;;;6.20;99.90;;;;;;4987804;28;20042;-63
2023/12/23 05:55:28;;;;;;;9.38;1.67;;;6.20;99.90;;;;;;4995082;28;20188;-63
2023/12/23 05:57:53;;;;;;;6.07;1.90;;;6.10;99.90;;;;;;5000990;28;20488;-63
2023/12/23 06:00:20;;;;;;;9.57;1.45;;;6.10;99.90;;;;;;4994192;28;20149;-63
2023/12/23 06:02:46;;;;;;;9.05;2.17;;;6.10;99.90;;;;;;4998121;28;20038;-63
2023/12/23 06:05:12;;;;;;;4.90;1.48;;;6.20;99.90;;;;;;4995284;28;20050;-63
2023/12/23 06:07:38;;;;;;;4.45;1.35;;;6.10;99.90;;;;;;4989338;28;20054;-63
2023/12/23 06:10:05;;;;;;;4.85;1.02;;;6.10;99.90;;;;;;4996758;28;20083;-63
2023/12/23 06:12:31;;;;;;;4.78;1.30;;;6.10;99.90;;;;;;4997734;28;20773;-63
2023/12/23 06:14:57;;;;;;;5.57;1.25;;;6.00;99.90;;;;;;4998387;28;20649;-63
2023/12/23 06:17:24;;;;;;;4.35;1.13;;;6.10;99.90;;;;;;4997808;28;20068;-63
2023/12/23 06:19:50;;;;;;;4.03;1.25;;;6.10;99.90;;;;;;4992772;28;20060;-64
2023/12/23 06:22:16;;;;;;;8.07;0.80;;;6.10;99.90;;;;;;4994956;28;20037;-63
2023/12/23 06:24:41;;;;;;;5.15;0.65;;;6.10;99.90;;;;;;4990827;28;20485;-63
2023/12/23 06:27:07;;;;;;;3.88;1.08;;;6.10;99.90;;;;;;4997344;28;20048;-62
2023/12/23 06:29:33;;;;;;;3.55;1.10;;;6.00;99.90;;;;;;4991734;28;20049;-64
2023/12/23 06:32:00;;;;;;;5.28;0.93;;;6.00;99.90;;;;;;4997465;28;20552;-64
2023/12/23 06:34:25;;;;;;;4.60;0.60;;;5.90;99.90;;;;;;4987650;28;20065;-63
2023/12/23 06:36:51;;;;;;;2.60;0.70;;;5.90;99.90;;;;;;4998532;28;20041;-64
2023/12/23 06:39:17;;;;;;;4.63;0.95;;;5.90;99.90;;;;;;4999607;28;20041;-63
2023/12/23 06:41:45;;;;;;;2.75;0.77;;;5.90;99.90;;;;;;4993807;28;20097;-64
2023/12/23 06:44:11;;;;;;;4.60;0.80;;;6.10;99.90;;;;;;4999965;28;20045;-63
2023/12/23 06:46:36;;;;;;;1.45;0.50;;;5.90;99.90;;;;;;4994150;28;20042;-63
2023/12/23 06:49:02;;;;;;;1.45;0.60;;;6.00;99.90;;;;;;4995552;28;20045;-63
2023/12/23 06:51:28;;;;;;;2.78;0.77;;;5.90;99.90;;;;;;4994749;28;20038;-64
2023/12/23 06:53:55;;;;;;;1.60;0.68;;;6.00;99.90;;;;;;4995140;28;20148;-63
2023/12/23 06:56:22;;;;;;;2.28;0.57;;;5.90;99.90;;;;;;4998804;28;20066;-64
2023/12/23 06:58:48;;;;;;;1.40;0.40;;;5.80;99.90;;;;;;4991173;28;20048;-63
2023/12/23 07:01:14;;;;;;;4.95;0.75;;;5.90;99.90;;;;;;4993507;28;20041;-63
2023/12/23 07:03:41;;;;;;;3.85;0.80;;;5.90;99.90;;;;;;4995508;28;20046;-62
2023/12/23 07:06:10;;;;;;;1.70;0.50;;;5.90;99.90;;;;;;4990691;28;20042;-63
2023/12/23 07:08:36;;;;;;;1.05;0.60;;;5.80;99.90;;;;;;4998533;28;20113;-63
2023/12/23 07:11:02;;;;;;;3.05;0.85;;;5.80;99.90;;;;;;4994408;28;20191;-63
2023/12/23 07:13:29;;;;;;;2.00;0.50;;;5.80;99.90;;;;;;4989046;28;20041;-63
2023/12/23 07:15:55;;;;;;;2.60;0.50;;;5.80;99.90;;;;;;4997346;28;20038;-63
2023/12/23 07:18:21;;;;;;;3.78;0.60;;;5.80;99.90;;;;;;4995962;28;20061;-63
2023/12/23 07:20:47;;;;;;;4.93;0.77;;;5.80;99.90;;;;;;4997830;28;20124;-63
2023/12/23 07:23:14;;;;;;;3.40;0.80;;;5.90;99.90;;;;;;4995234;28;20062;-63
2023/12/23 07:25:40;;;;;;;1.52;0.50;;;5.90;99.90;;;;;;4997794;28;20045;-63
2023/12/23 07:28:06;;;;;;;2.67;0.70;;;5.90;99.90;;;;;;4993790;28;20039;-63
2023/12/23 07:30:32;;;;;;;1.55;0.57;;;5.90;99.90;;;;;;4990331;28;20096;-63
2023/12/23 07:32:57;;;;;;;1.77;0.50;;;5.90;99.90;;;;;;4994879;28;20116;-63
2023/12/23 07:35:23;;;;;;;2.95;1.00;;;5.80;99.90;;;;;;4999875;28;20072;-63
2023/12/23 07:37:50;;;;;;;2.53;0.63;;;5.90;99.90;;;;;;4996264;28;20485;-63
2023/12/23 07:40:16;;;;;;;1.48;0.50;;;5.90;99.90;;;;;;5001622;28;20065;-63
2023/12/23 07:42:42;;;;;;;2.58;0.50;;;5.90;99.90;;;;;;4992339;28;20448;-63
2023/12/23 07:45:09;;;;;;;1.48;0.60;;;5.90;99.90;;;;;;4998142;28;20061;-63
2023/12/23 07:47:35;;;;;;;4.47;0.73;;;5.90;99.90;;;;;;4977839;28;20065;-63
2023/12/23 07:50:00;;;;;;;2.05;0.50;;;6.00;99.90;;;;;;4990711;28;20335;-63
2023/12/23 07:52:26;;;;;;;1.48;0.60;;;5.50;99.90;;;;;;4994664;28;20038;-63
2023/12/23 07:54:52;;;;;;;3.40;0.70;;;5.80;99.90;;;;;;4988655;28;20460;-63
2023/12/23 07:57:18;;;;;;;2.85;0.90;;;5.90;99.90;;;;;;4996089;28;20119;-63
2023/12/23 07:59:45;;;;;;;1.27;0.55;;;5.90;99.90;;;;;;5000722;28;20042;-63
2023/12/23 08:02:10;;;;;;;1.15;0.63;;;5.90;99.90;;;;;;4994123;28;20038;-64
2023/12/23 08:04:36;;;;;;;2.28;0.90;;;5.90;99.90;;;;;;4992036;28;20158;-64
2023/12/23 08:07:02;;;;;;;2.85;1.10;;;6.00;99.90;;;;;;4997886;28;20040;-63
2023/12/23 08:09:28;;;;;;;1.20;0.82;;;5.90;99.90;;;;;;4994071;28;20046;-63
2023/12/23 08:11:53;;;;;;;3.03;1.88;;;5.90;99.90;;;;;;4992494;28;20128;-63
2023/12/23 08:14:19;;;;;;;1.33;0.73;;;5.90;99.90;;;;;;4997624;28;20115;-63
2023/12/23 08:16:45;;;;;;;1.77;0.88;;;5.90;99.90;;;;;;4993546;28;20610;-63
2023/12/23 08:19:12;;;;;;;2.20;1.00;;;6.10;99.90;;;;;;4993517;28;20046;-63
2023/12/23 08:21:38;;;;;;;1.00;0.70;;;5.90;99.90;;;;;;4998212;28;20082;-63
2023/12/23 08:24:04;;;;;;;1.95;0.77;;;6.00;99.90;;;;;;5002071;28;20077;-64
2023/12/23 08:26:30;;;;;;;3.28;1.20;;;6.10;99.90;;;;;;4997229;28;20050;-63
2023/12/23 08:28:56;;;;;;;1.92;1.10;;;6.10;99.90;;;;;;4993674;28;20105;-63
2023/12/23 08:31:21;;;;;;;0.95;0.88;;;6.10;99.90;;;;;;5000889;28;20046;-63
2023/12/23 08:33:47;;;;;;;2.63;1.00;;;6.00;99.90;;;;;;5002170;28;20762;-63
2023/12/23 08:36:13;;;;;;;1.85;0.95;;;6.00;99.90;;;;;;4992767;28;20389;-63
2023/12/23 08:38:38;;;;;;;2.25;1.00;;;6.10;99.90;;;;;;4999082;28;20065;-63
2023/12/23 08:41:04;;;;;;;5.68;0.85;;;6.10;99.90;;;;;;4999680;28;20493;-63
2023/12/23 08:43:31;;;;;;;3.60;0.70;;;6.00;99.90;;;;;;4997406;28;20497;-62
2023/12/23 08:45:57;;;;;;;1.70;0.63;;;6.10;99.90;;;;;;4998326;28;20392;-63
2023/12/23 08:48:22;;;;;;;1.77;0.70;;;6.00;99.90;;;;;;4995618;28;20038;-63
2023/12/23 08:50:49;;;;;;;1.55;0.93;;;6.00;99.90;;;;;;4979824;28;20584;-63
2023/12/23 08:53:16;;;;;;;1.50;0.88;;;6.00;99.90;;;;;;4995094;28;20042;-63
2023/12/23 08:55:44;;;;;;;1.10;0.85;;;6.00;99.90;;;;;;5000490;28;20126;-63
2023/12/23 08:58:13;;;;;;;1.80;1.08;;;6.10;99.90;;;;;;4997160;28;20390;-63
2023/12/23 09:00:39;;;;;;;0.93;0.85;;;6.10;99.90;;;;;;4999122;28;20147;-63
2023/12/23 09:03:05;;;;;;;2.10;0.95;;;6.10;99.90;;;;;;4996370;28;20500;-64
2023/12/23 09:05:31;;;;;;;1.52;0.90;;;6.10;99.90;;;;;;5003316;28;20052;-63
2023/12/23 09:07:56;;;;;;;1.85;0.82;;;6.20;99.90;;;;;;4999099;28;20046;-63
2023/12/23 09:10:22;;;;;;;1.30;0.98;;;6.10;99.90;;;;;;4997083;28;20054;-63
2023/12/23 09:12:48;;;;;;;1.73;1.10;;;6.20;99.90;;;;;;5000398;28;20149;-63
2023/12/23 09:15:14;;;;;;;1.20;0.80;;;6.20;99.90;;;;;;5002953;28;20078;-63
2023/12/23 09:17:39;;;;;;;0.68;0.68;;;6.30;99.90;;;;;;4997405;28;20509;-63
2023/12/23 09:20:06;;;;;;;0.60;0.60;;;6.20;99.90;;;;;;4996856;28;20034;-63
2023/12/23 09:22:32;;;;;;;0.90;0.57;;;6.20;99.90;;;;;;5004257;28;20034;-64
2023/12/23 09:24:58;;;;;;;1.38;0.90;;;6.20;99.90;;;;;;4988604;28;20037;-63
2023/12/23 09:27:23;;;;;;;1.50;0.90;;;6.20;99.90;;;;;;4992504;28;20081;-63
2023/12/23 09:29:49;;;;;;;1.65;0.70;;;6.20;99.90;;;;;;4998899;28;20050;-63
2023/12/23 09:32:15;;;;;;;0.70;0.70;;;6.30;99.90;;;;;;5001899;28;20129;-63
2023/12/23 09:34:40;;;;;;;0.70;0.70;;;6.30;99.90;;;;;;4996163;28;20045;-63
2023/12/23 09:37:06;;;;;;;1.85;0.70;;;6.20;99.90;;;;;;4997589;28;20390;-63
2023/12/23 09:39:32;;;;;;;0.90;0.70;;;6.20;99.90;;;;;;4996445;28;20077;-63
2023/12/23 09:41:59;;;;;;;1.45;1.00;;;6.20;99.90;;;;;;4978015;28;20085;-63
2023/12/23 09:44:25;;;;;;;3.40;1.40;;;6.20;99.90;;;;;;4999081;28;20770;-63
2023/12/23 09:46:51;;;;;;;2.00;1.48;;;6.30;99.90;;;;;;5002770;28;20142;-63
2023/12/23 09:49:17;;;;;;;1.90;1.38;;;6.20;99.90;;;;;;4999624;28;20073;-64
2023/12/23 09:51:44;;;;;;;1.88;1.70;;;6.20;99.90;;;;;;4995070;28;20100;-63
2023/12/23 09:54:15;;;;;;;1.73;1.60;;;6.20;99.90;;;;;;4996795;28;20403;-64
2023/12/23 09:56:42;;;;;;;2.88;1.90;;;6.30;99.90;;;;;;4994995;28;20042;-63
2023/12/23 09:59:08;;;;;;;2.05;1.65;;;6.30;99.90;;;;;;4992693;28;20496;-63
2023/12/23 10:01:34;;;;;;;1.20;1.10;;;6.30;99.90;;;;;;5000610;28;20575;-63
2023/12/23 10:04:00;;;;;;;1.30;1.20;;;6.30;99.90;;;;;;4999089;28;20050;-63
2023/12/23 10:06:26;;;;;;;2.50;1.10;;;6.30;99.90;;;;;;4990978;28;20095;-63
2023/12/23 10:08:51;;;;;;;1.60;1.25;;;6.40;99.90;;;;;;4997068;28;20125;-63
2023/12/23 10:11:18;;;;;;;2.05;1.33;;;6.40;99.90;;;;;;5001336;28;20038;-63
2023/12/23 10:13:44;;;;;;;2.90;0.98;;;6.30;99.90;;;;;;4995516;28;20121;-64
2023/12/23 10:16:10;;;;;;;2.08;1.13;;;6.40;99.90;;;;;;4994627;28;20041;-63
2023/12/23 10:18:38;;;;;;;1.55;1.10;;;6.30;99.90;;;;;;4998786;28;20042;-64
2023/12/23 10:21:04;;;;;;;1.02;0.93;;;6.40;99.90;;;;;;5001076;28;20508;-63
2023/12/23 10:23:30;;;;;;;2.03;1.20;;;6.40;99.90;;;;;;5001932;28;20034;-64
2023/12/23 10:25:55;;;;;;;1.05;0.88;;;6.30;99.90;;;;;;5002544;28;20077;-63
2023/12/23 10:28:25;;;;;;;1.60;0.90;;;6.30;99.90;;;;;;4999607;28;20239;-63
2023/12/23 10:30:51;;;;;;;;;;;6.40;99.90;;;;;;5000291;28;20049;-63
2023/12/23 10:33:18;;;;;;;2.00;1.55;;;6.40;99.90;;;;;;4999397;28;20510;-63
2023/12/23 10:35:45;;;;;;;2.50;0.88;;;6.50;99.90;;;;;;4993796;28;20589;-63
2023/12/23 10:38:22;;;;;;;1.92;1.30;;;6.50;99.90;;;;;;4999553;28;20088;-63
2023/12/23 10:41:00;;;;;;;0.93;0.70;;;6.50;99.90;;;;;;5002629;28;20041;-63
2023/12/23 10:43:26;;;;;;;1.90;0.75;;;6.50;99.90;;;;;;4985805;28;20045;-63
2023/12/23 10:45:54;;;;;;;0.70;0.50;;;6.40;99.90;;;;;;5002963;28;20050;-63
2023/12/23 10:48:22;;;;;;;0.67;0.50;;;6.50;99.90;;;;;;4996604;28;20481;-63
2023/12/23 10:50:50;;;;;;;2.03;0.80;;;6.50;99.90;;;;;;4999927;28;20053;-63
2023/12/23 10:53:17;;;;;;;0.80;0.80;;;6.50;99.90;;;;;;4997903;28;20034;-63
2023/12/23 10:55:47;;;;;;;0.77;0.50;;;6.50;99.90;;;;;;4988268;28;20180;-63
2023/12/23 10:58:13;;;;;;;0.47;0.40;;;6.50;99.90;;;;;;5000559;28;20033;-63
2023/12/23 11:00:39;;;;;;;0.60;0.50;;;6.50;99.90;;;;;;5000874;28;20050;-62
2023/12/23 11:03:07;;;;;;;0.80;0.30;;;6.50;99.90;;;;;;4996517;28;20033;-63
2023/12/23 11:05:36;;;;;;;0.82;0.57;;;6.60;99.90;;;;;;4979228;28;20057;-64
2023/12/23 11:08:06;;;;;;;0.45;0.40;;;6.60;99.90;;;;;;5002131;28;20128;-65
2023/12/23 11:10:33;;;;;;;0.30;0.30;;;6.50;99.90;;;;;;4999702;28;20046;-64
2023/12/23 11:13:00;;;;;;;0.55;0.50;;;6.50;99.90;;;;;;4994281;28;20042;-64
2023/12/23 11:15:26;;;;;;;0.82;0.57;;;6.50;99.90;;;;;;4993425;28;20042;-64
2023/12/23 11:17:54;;;;;;;0.98;0.55;;;6.60;99.90;;;;;;4996305;28;20034;-64
2023/12/23 11:20:50;;;;;;;0.40;0.40;;;6.50;99.90;;;;;;5001030;28;20092;-64
2023/12/23 11:23:28;;;;;;;0.40;0.40;;;6.60;99.90;;;;;;4994457;28;20539;-64
2023/12/23 11:25:55;;;;;;;0.75;0.63;;;6.70;99.90;;;;;;5000809;28;20042;-64
2023/12/23 11:28:21;;;;;;;2.28;1.00;;;6.60;99.90;;;;;;4999997;28;20124;-64
2023/12/23 11:30:52;;;;;;;1.40;0.60;;;6.60;99.90;;;;;;4989901;28;20046;-64
2023/12/23 11:33:19;;;;;;;0.63;0.50;;;6.60;99.90;;;;;;4994540;28;20112;-64
2023/12/23 11:35:49;;;;;;;1.42;0.60;;;6.70;99.90;;;;;;4990329;28;20042;-64
2023/12/23 11:38:15;;;;;;;0.50;0.30;;;6.80;99.90;;;;;;4989020;28;20038;-64
2023/12/23 11:40:42;;;;;;;0.75;0.40;;;6.60;99.90;;;;;;4989267;28;20492;-64
2023/12/23 11:43:08;;;;;;;0.90;0.40;;;6.80;99.90;;;;;;4993693;28;20054;-64
2023/12/23 11:45:37;;;;;;;0.60;0.60;;;6.70;99.90;;;;;;4996365;28;20049;-64
2023/12/23 11:48:05;;;;;;;0.43;0.40;;;6.80;99.90;;;;;;4997850;28;20042;-64
2023/12/23 11:50:31;;;;;;;0.55;0.55;;;6.80;99.90;;;;;;4999666;28;20501;-64
2023/12/23 11:52:57;;;;;;;1.15;0.70;;;6.70;99.90;;;;;;5002212;28;20153;-64
2023/12/23 11:55:23;;;;;;;0.70;0.70;;;6.80;99.90;;;;;;5004882;28;20104;-64
2023/12/23 11:57:49;;;;;;;1.73;0.73;;;6.80;99.90;;;;;;5001166;28;20077;-64
2023/12/23 12:00:17;;;;;;;0.77;0.77;;;6.80;99.90;;;;;;5004905;28;20034;-64
2023/12/23 12:02:43;;;;;;;0.90;0.75;;;6.80;99.90;;;;;;5003887;28;20083;-64
2023/12/23 12:05:09;;;;;;;0.63;0.60;;;6.80;99.90;;;;;;5001384;28;20144;-63
2023/12/23 12:07:35;;;;;;;1.23;0.70;;;6.80;99.90;;;;;;5000554;28;20049;-63
2023/12/23 12:10:00;;;;;;;2.13;0.90;;;6.80;99.90;;;;;;4995163;28;20038;-63
2023/12/23 12:12:26;;;;;;;0.75;0.68;;;6.80;99.90;;;;;;5003693;28;20499;-63
2023/12/23 12:14:52;;;;;;;0.73;0.65;;;6.80;99.90;;;;;;5002783;28;20044;-63
2023/12/23 12:17:18;;;;;;;2.63;1.13;;;6.80;99.90;;;;;;4997035;28;20370;-63
2023/12/23 12:19:44;;;;;;;3.17;1.20;;;6.90;99.90;;;;;;4996192;28;20046;-63
2023/12/23 12:22:10;;;;;;;1.20;1.10;;;6.90;99.90;;;;;;4998608;28;20041;-63
2023/12/23 12:24:37;;;;;;;2.55;1.30;;;6.90;99.90;;;;;;4999003;28;20081;-63
2023/12/23 12:27:03;;;;;;;2.22;1.90;;;6.90;99.90;;;;;;4990507;28;20045;-63
2023/12/23 12:29:29;;;;;;;2.28;1.95;;;6.90;99.90;;;;;;4998283;28;20447;-63
2023/12/23 12:31:57;;;;;;;5.00;3.38;;;7.00;99.90;;;;;;5002909;28;20048;-63
2023/12/23 12:34:23;;;;;;;2.88;2.58;;;6.90;99.90;;;;;;4989823;28;20052;-63
2023/12/23 12:36:52;;;;;;;2.17;1.98;;;6.90;99.90;;;;;;4997310;28;20045;-63
2023/12/23 12:39:21;;;;;;;2.28;1.90;;;7.00;99.90;;;;;;5000984;28;20574;-63
2023/12/23 12:41:51;;;;;;;2.28;1.80;;;7.10;99.90;;;;;;5000041;28;20034;-63
2023/12/23 12:44:20;;;;;;;2.60;2.03;;;7.00;99.90;;;;;;4998334;28;20059;-63
2023/12/23 12:46:55;;;;;;;2.10;1.88;;;7.00;99.90;;;;;;4995860;28;20063;-63
2023/12/23 12:49:23;;;;;;;1.98;1.77;;;7.10;99.90;;;;;;5000554;28;20086;-63